sensor_id;sensor_type;location;lat;lon;timestamp;temperature;humidity
54461;DHT22;69977;49.414;11.010;2023-10-31T00:00:45;12.30;99.90
54461;DHT22;69977;49.414;11.010;2023-10-31T00:03:10;12.30;99.90
54461;DHT22;69977;49.414;11.010;2023-10-31T00:05:36;12.30;99.90
54461;DHT22;69977;49.414;11.010;2023-10-31T00:08:03;12.30;99.90
54461;DHT22;69977;49.414;11.010;2023-10-31T00:10:28;12.40;99.90
54461;DHT22;69977;49.414;11.010;2023-10-31T00:12:55;12.40;99.90
54461;DHT22;69977;49.414;11.010;2023-10-31T00:15:20;12.40;99.90
54461;DHT22;69977;49.414;11.010;2023-10-31T00:17:46;12.50;99.90
54461;DHT22;69977;49.414;11.010;2023-10-31T00:20:12;12.40;99.90
54461;DHT22;69977;49.414;11.010;2023-10-31T00:22:38;12.40;99.90
54461;DHT22;69977;49.414;11.010;2023-10-31T00:25:04;12.50;99.90
54461;DHT22;69977;49.414;11.010;2023-10-31T00:27:30;12.50;99.90
54461;DHT22;69977;49.414;11.010;2023-10-31T00:29:56;12.50;99.90
54461;DHT22;69977;49.414;11.010;2023-10-31T00:32:22;12.50;99.90
54461;DHT22;69977;49.414;11.010;2023-10-31T00:34:48;12.50;99.90
54461;DHT22;69977;49.414;11.010;2023-10-31T00:37:13;12.50;99.90
54461;DHT22;69977;49.414;11.010;2023-10-31T00:39:39;12.50;99.90
54461;DHT22;69977;49.414;11.010;2023-10-31T00:42:05;12.40;99.90
54461;DHT22;69977;49.414;11.010;2023-10-31T00:44:31;12.40;99.90
54461;DHT22;69977;49.414;11.010;2023-10-31T00:46:57;12.40;99.90
54461;DHT22;69977;49.414;11.010;2023-10-31T00:49:23;12.40;99.90
54461;DHT22;69977;49.414;11.010;2023-10-31T00:51:49;12.40;99.90
54461;DHT22;69977;49.414;11.010;2023-10-31T00:54:15;12.50;99.90
54461;DHT22;69977;49.414;11.010;2023-10-31T00:56:40;12.50;99.90
54461;DHT22;69977;49.414;11.010;2023-10-31T00:59:06;12.50;99.90
54461;DHT22;69977;49.414;11.010;2023-10-31T01:01:33;12.40;99.90
54461;DHT22;69977;49.414;11.010;2023-10-31T01:03:59;12.40;99.90
54461;DHT22;69977;49.414;11.010;2023-10-31T01:06:24;12.40;99.90
54461;DHT22;69977;49.414;11.010;2023-10-31T01:08:50;12.40;99.90
54461;DHT22;69977;49.414;11.010;2023-10-31T01:11:16;12.40;99.90
54461;DHT22;69977;49.414;11.010;2023-10-31T01:13:42;12.30;99.90
54461;DHT22;69977;49.414;11.010;2023-10-31T01:16:08;12.40;99.90
54461;DHT22;69977;49.414;11.010;2023-10-31T01:18:33;12.40;99.90
54461;DHT22;69977;49.414;11.010;2023-10-31T01:20:59;12.40;99.90
54461;DHT22;69977;49.414;11.010;2023-10-31T01:23:25;12.30;99.90
54461;DHT22;69977;49.414;11.010;2023-10-31T01:25:51;12.30;99.90
54461;DHT22;69977;49.414;11.010;2023-10-31T01:28:17;12.30;99.90
54461;DHT22;69977;49.414;11.010;2023-10-31T01:30:44;12.30;99.90
54461;DHT22;69977;49.414;11.010;2023-10-31T01:33:10;12.30;99.90
54461;DHT22;69977;49.414;11.010;2023-10-31T01:35:36;12.30;99.90
54461;DHT22;69977;49.414;11.010;2023-10-31T01:38:01;12.30;99.90
54461;DHT22;69977;49.414;11.010;2023-10-31T01:40:27;12.30;99.90
54461;DHT22;69977;49.414;11.010;2023-10-31T01:42:55;12.30;99.90
54461;DHT22;69977;49.414;11.010;2023-10-31T01:45:21;12.30;99.90
54461;DHT22;69977;49.414;11.010;2023-10-31T01:47:48;12.30;99.90
54461;DHT22;69977;49.414;11.010;2023-10-31T01:50:15;12.30;99.90
54461;DHT22;69977;49.414;11.010;2023-10-31T01:52:42;12.30;99.90
54461;DHT22;69977;49.414;11.010;2023-10-31T01:55:09;12.30;99.90
54461;DHT22;69977;49.414;11.010;2023-10-31T01:57:36;12.30;99.90
54461;DHT22;69977;49.414;11.010;2023-10-31T02:00:02;12.20;99.90
54461;DHT22;69977;49.414;11.010;2023-10-31T02:02:37;12.30;99.90
54461;DHT22;69977;49.414;11.010;2023-10-31T02:05:06;12.30;99.90
54461;DHT22;69977;49.414;11.010;2023-10-31T02:07:32;12.20;99.90
54461;DHT22;69977;49.414;11.010;2023-10-31T02:09:58;12.20;99.90
54461;DHT22;69977;49.414;11.010;2023-10-31T02:12:37;12.10;99.90
54461;DHT22;69977;49.414;11.010;2023-10-31T02:15:03;12.10;99.90
54461;DHT22;69977;49.414;11.010;2023-10-31T02:17:30;12.00;99.90
54461;DHT22;69977;49.414;11.010;2023-10-31T02:19:55;12.00;99.90
54461;DHT22;69977;49.414;11.010;2023-10-31T02:22:22;12.00;99.90
54461;DHT22;69977;49.414;11.010;2023-10-31T02:24:48;12.00;99.90
54461;DHT22;69977;49.414;11.010;2023-10-31T02:27:14;12.00;99.90
54461;DHT22;69977;49.414;11.010;2023-10-31T02:29:40;12.00;99.90
54461;DHT22;69977;49.414;11.010;2023-10-31T02:32:06;12.00;99.90
54461;DHT22;69977;49.414;11.010;2023-10-31T02:34:32;11.80;99.90
54461;DHT22;69977;49.414;11.010;2023-10-31T02:36:57;11.80;99.90
54461;DHT22;69977;49.414;11.010;2023-10-31T02:39:23;11.80;99.90
54461;DHT22;69977;49.414;11.010;2023-10-31T02:41:49;11.70;99.90
54461;DHT22;69977;49.414;11.010;2023-10-31T02:44:15;11.80;99.90
54461;DHT22;69977;49.414;11.010;2023-10-31T02:46:41;11.70;99.90
54461;DHT22;69977;49.414;11.010;2023-10-31T02:49:07;11.70;99.90
54461;DHT22;69977;49.414;11.010;2023-10-31T02:51:35;11.70;99.90
54461;DHT22;69977;49.414;11.010;2023-10-31T02:54:01;11.70;99.90
54461;DHT22;69977;49.414;11.010;2023-10-31T02:56:27;11.70;99.90
54461;DHT22;69977;49.414;11.010;2023-10-31T02:58:53;11.70;99.90
54461;DHT22;69977;49.414;11.010;2023-10-31T03:01:18;11.80;99.90
54461;DHT22;69977;49.414;11.010;2023-10-31T03:03:45;11.70;99.90
54461;DHT22;69977;49.414;11.010;2023-10-31T03:06:11;11.70;99.90
54461;DHT22;69977;49.414;11.010;2023-10-31T03:08:37;11.60;99.90
54461;DHT22;69977;49.414;11.010;2023-10-31T03:11:03;11.60;99.90
54461;DHT22;69977;49.414;11.010;2023-10-31T03:13:29;11.60;99.90
54461;DHT22;69977;49.414;11.010;2023-10-31T03:15:54;11.60;99.90
54461;DHT22;69977;49.414;11.010;2023-10-31T03:18:20;11.60;99.90
54461;DHT22;69977;49.414;11.010;2023-10-31T03:20:46;11.60;99.90
54461;DHT22;69977;49.414;11.010;2023-10-31T03:23:13;11.50;99.90
54461;DHT22;69977;49.414;11.010;2023-10-31T03:25:39;11.50;99.90
54461;DHT22;69977;49.414;11.010;2023-10-31T03:28:19;11.40;99.90
54461;DHT22;69977;49.414;11.010;2023-10-31T03:30:48;11.40;99.90
54461;DHT22;69977;49.414;11.010;2023-10-31T03:33:15;11.30;99.90
54461;DHT22;69977;49.414;11.010;2023-10-31T03:35:42;11.30;99.90
54461;DHT22;69977;49.414;11.010;2023-10-31T03:38:08;11.20;99.90
54461;DHT22;69977;49.414;11.010;2023-10-31T03:40:34;11.20;99.90
54461;DHT22;69977;49.414;11.010;2023-10-31T03:43:00;11.20;99.90
54461;DHT22;69977;49.414;11.010;2023-10-31T03:45:26;11.20;99.90
54461;DHT22;69977;49.414;11.010;2023-10-31T03:47:52;11.30;99.90
54461;DHT22;69977;49.414;11.010;2023-10-31T03:50:17;11.20;99.90
54461;DHT22;69977;49.414;11.010;2023-10-31T03:52:43;11.20;99.90
54461;DHT22;69977;49.414;11.010;2023-10-31T03:55:09;11.10;99.90
54461;DHT22;69977;49.414;11.010;2023-10-31T03:57:35;11.10;99.90
54461;DHT22;69977;49.414;11.010;2023-10-31T04:00:01;11.10;99.90
54461;DHT22;69977;49.414;11.010;2023-10-31T04:02:39;11.10;99.90
54461;DHT22;69977;49.414;11.010;2023-10-31T04:05:07;11.10;99.90
54461;DHT22;69977;49.414;11.010;2023-10-31T04:07:34;11.10;99.90
54461;DHT22;69977;49.414;11.010;2023-10-31T04:10:00;11.10;99.90
54461;DHT22;69977;49.414;11.010;2023-10-31T04:12:26;11.10;99.90
54461;DHT22;69977;49.414;11.010;2023-10-31T04:14:52;11.10;99.90
54461;DHT22;69977;49.414;11.010;2023-10-31T04:17:18;11.10;99.90
54461;DHT22;69977;49.414;11.010;2023-10-31T04:19:43;11.10;99.90
54461;DHT22;69977;49.414;11.010;2023-10-31T04:22:09;11.10;99.90
54461;DHT22;69977;49.414;11.010;2023-10-31T04:24:35;11.00;99.90
54461;DHT22;69977;49.414;11.010;2023-10-31T04:27:01;11.00;99.90
54461;DHT22;69977;49.414;11.010;2023-10-31T04:29:27;11.00;99.90
54461;DHT22;69977;49.414;11.010;2023-10-31T04:31:52;10.90;99.90
54461;DHT22;69977;49.414;11.010;2023-10-31T04:34:18;10.90;99.90
54461;DHT22;69977;49.414;11.010;2023-10-31T04:36:44;10.80;99.90
54461;DHT22;69977;49.414;11.010;2023-10-31T04:39:10;10.80;99.90
54461;DHT22;69977;49.414;11.010;2023-10-31T04:41:36;10.80;99.90
54461;DHT22;69977;49.414;11.010;2023-10-31T04:44:02;10.80;99.90
54461;DHT22;69977;49.414;11.010;2023-10-31T04:46:28;10.80;99.90
54461;DHT22;69977;49.414;11.010;2023-10-31T04:48:54;10.80;99.90
54461;DHT22;69977;49.414;11.010;2023-10-31T04:51:23;10.80;99.90
54461;DHT22;69977;49.414;11.010;2023-10-31T04:53:49;10.80;99.90
54461;DHT22;69977;49.414;11.010;2023-10-31T04:56:15;10.70;99.90
54461;DHT22;69977;49.414;11.010;2023-10-31T04:58:42;10.70;99.90
54461;DHT22;69977;49.414;11.010;2023-10-31T05:01:09;10.70;99.90
54461;DHT22;69977;49.414;11.010;2023-10-31T05:03:35;10.70;99.90
54461;DHT22;69977;49.414;11.010;2023-10-31T05:06:01;10.70;99.90
54461;DHT22;69977;49.414;11.010;2023-10-31T05:08:27;10.60;99.90
54461;DHT22;69977;49.414;11.010;2023-10-31T05:10:52;10.50;99.90
54461;DHT22;69977;49.414;11.010;2023-10-31T05:13:18;10.50;99.90
54461;DHT22;69977;49.414;11.010;2023-10-31T05:15:44;10.50;99.90
54461;DHT22;69977;49.414;11.010;2023-10-31T05:18:10;10.40;99.90
54461;DHT22;69977;49.414;11.010;2023-10-31T05:20:36;10.50;99.90
54461;DHT22;69977;49.414;11.010;2023-10-31T05:23:02;10.50;99.90
54461;DHT22;69977;49.414;11.010;2023-10-31T05:25:28;10.50;99.90
54461;DHT22;69977;49.414;11.010;2023-10-31T05:27:54;10.50;99.90
54461;DHT22;69977;49.414;11.010;2023-10-31T05:30:20;10.50;99.90
54461;DHT22;69977;49.414;11.010;2023-10-31T05:32:47;10.50;99.90
54461;DHT22;69977;49.414;11.010;2023-10-31T05:35:12;10.50;99.90
54461;DHT22;69977;49.414;11.010;2023-10-31T05:37:38;10.50;99.90
54461;DHT22;69977;49.414;11.010;2023-10-31T05:40:05;10.40;99.90
54461;DHT22;69977;49.414;11.010;2023-10-31T05:42:31;10.40;99.90
54461;DHT22;69977;49.414;11.010;2023-10-31T05:44:57;10.50;99.90
54461;DHT22;69977;49.414;11.010;2023-10-31T05:47:23;10.50;99.90
54461;DHT22;69977;49.414;11.010;2023-10-31T05:49:48;10.50;99.90
54461;DHT22;69977;49.414;11.010;2023-10-31T05:52:14;10.50;99.90
54461;DHT22;69977;49.414;11.010;2023-10-31T05:54:40;10.50;99.90
54461;DHT22;69977;49.414;11.010;2023-10-31T05:57:06;10.50;99.90
54461;DHT22;69977;49.414;11.010;2023-10-31T05:59:32;10.50;99.90
54461;DHT22;69977;49.414;11.010;2023-10-31T06:01:58;10.50;99.90
54461;DHT22;69977;49.414;11.010;2023-10-31T06:04:24;10.40;99.90
54461;DHT22;69977;49.414;11.010;2023-10-31T06:06:53;10.40;99.90
54461;DHT22;69977;49.414;11.010;2023-10-31T06:09:19;10.40;99.90
54461;DHT22;69977;49.414;11.010;2023-10-31T06:11:44;10.40;99.90
54461;DHT22;69977;49.414;11.010;2023-10-31T06:14:11;10.40;99.90
54461;DHT22;69977;49.414;11.010;2023-10-31T06:16:43;10.40;99.90
54461;DHT22;69977;49.414;11.010;2023-10-31T06:19:09;10.40;99.90
54461;DHT22;69977;49.414;11.010;2023-10-31T06:21:36;10.40;99.90
54461;DHT22;69977;49.414;11.010;2023-10-31T06:24:05;10.40;99.90
54461;DHT22;69977;49.414;11.010;2023-10-31T06:26:31;10.40;99.90
54461;DHT22;69977;49.414;11.010;2023-10-31T06:28:56;10.40;99.90
54461;DHT22;69977;49.414;11.010;2023-10-31T06:31:22;10.50;99.90
54461;DHT22;69977;49.414;11.010;2023-10-31T06:33:48;10.40;99.90
54461;DHT22;69977;49.414;11.010;2023-10-31T06:36:14;10.50;99.90
54461;DHT22;69977;49.414;11.010;2023-10-31T06:38:40;10.50;99.90
54461;DHT22;69977;49.414;11.010;2023-10-31T06:41:06;10.50;99.90
54461;DHT22;69977;49.414;11.010;2023-10-31T06:43:32;10.50;99.90
54461;DHT22;69977;49.414;11.010;2023-10-31T06:45:58;10.50;99.90
54461;DHT22;69977;49.414;11.010;2023-10-31T06:48:26;10.60;99.90
54461;DHT22;69977;49.414;11.010;2023-10-31T06:50:52;10.70;99.90
54461;DHT22;69977;49.414;11.010;2023-10-31T06:53:17;10.60;99.90
54461;DHT22;69977;49.414;11.010;2023-10-31T06:55:43;10.70;99.90
54461;DHT22;69977;49.414;11.010;2023-10-31T06:58:09;10.70;99.90
54461;DHT22;69977;49.414;11.010;2023-10-31T07:00:35;10.80;99.90
54461;DHT22;69977;49.414;11.010;2023-10-31T07:03:00;10.80;99.90
54461;DHT22;69977;49.414;11.010;2023-10-31T07:05:37;10.80;99.90
54461;DHT22;69977;49.414;11.010;2023-10-31T07:08:04;10.80;99.90
54461;DHT22;69977;49.414;11.010;2023-10-31T07:10:30;10.80;99.90
54461;DHT22;69977;49.414;11.010;2023-10-31T07:12:56;10.80;99.90
54461;DHT22;69977;49.414;11.010;2023-10-31T07:15:25;10.80;99.90
54461;DHT22;69977;49.414;11.010;2023-10-31T07:17:50;10.80;99.90
54461;DHT22;69977;49.414;11.010;2023-10-31T07:20:16;10.80;99.90
54461;DHT22;69977;49.414;11.010;2023-10-31T07:22:42;10.80;99.90
54461;DHT22;69977;49.414;11.010;2023-10-31T07:25:09;10.80;99.90
54461;DHT22;69977;49.414;11.010;2023-10-31T07:27:35;10.80;99.90
54461;DHT22;69977;49.414;11.010;2023-10-31T07:30:03;10.90;99.90
54461;DHT22;69977;49.414;11.010;2023-10-31T07:32:29;10.90;99.90
54461;DHT22;69977;49.414;11.010;2023-10-31T07:34:55;10.90;99.90
54461;DHT22;69977;49.414;11.010;2023-10-31T07:37:21;10.90;99.90
54461;DHT22;69977;49.414;11.010;2023-10-31T07:39:47;10.90;99.90
54461;DHT22;69977;49.414;11.010;2023-10-31T07:42:14;10.90;99.90
54461;DHT22;69977;49.414;11.010;2023-10-31T07:44:40;11.00;99.90
54461;DHT22;69977;49.414;11.010;2023-10-31T07:47:06;11.00;99.90
54461;DHT22;69977;49.414;11.010;2023-10-31T07:49:31;11.10;99.90
54461;DHT22;69977;49.414;11.010;2023-10-31T07:51:57;11.10;99.90
54461;DHT22;69977;49.414;11.010;2023-10-31T07:54:23;11.10;99.90
54461;DHT22;69977;49.414;11.010;2023-10-31T07:56:49;11.10;99.90
54461;DHT22;69977;49.414;11.010;2023-10-31T07:59:14;11.10;99.90
54461;DHT22;69977;49.414;11.010;2023-10-31T08:01:41;11.10;99.90
54461;DHT22;69977;49.414;11.010;2023-10-31T08:04:06;11.20;99.90
54461;DHT22;69977;49.414;11.010;2023-10-31T08:06:32;11.20;99.90
54461;DHT22;69977;49.414;11.010;2023-10-31T08:08:58;11.10;99.90
54461;DHT22;69977;49.414;11.010;2023-10-31T08:11:24;11.10;99.90
54461;DHT22;69977;49.414;11.010;2023-10-31T08:13:50;11.20;99.90
54461;DHT22;69977;49.414;11.010;2023-10-31T08:16:19;11.30;99.90
54461;DHT22;69977;49.414;11.010;2023-10-31T08:18:46;11.30;99.90
54461;DHT22;69977;49.414;11.010;2023-10-31T08:21:12;11.30;99.90
54461;DHT22;69977;49.414;11.010;2023-10-31T08:23:38;11.40;99.90
54461;DHT22;69977;49.414;11.010;2023-10-31T08:26:04;11.40;99.90
54461;DHT22;69977;49.414;11.010;2023-10-31T08:28:30;11.50;99.90
54461;DHT22;69977;49.414;11.010;2023-10-31T08:30:57;11.50;99.90
54461;DHT22;69977;49.414;11.010;2023-10-31T08:33:23;11.50;99.90
54461;DHT22;69977;49.414;11.010;2023-10-31T08:35:49;11.40;99.90
54461;DHT22;69977;49.414;11.010;2023-10-31T08:38:16;11.40;99.90
54461;DHT22;69977;49.414;11.010;2023-10-31T08:40:42;11.30;99.90
54461;DHT22;69977;49.414;11.010;2023-10-31T08:43:08;11.30;99.90
54461;DHT22;69977;49.414;11.010;2023-10-31T08:45:34;11.30;99.90
54461;DHT22;69977;49.414;11.010;2023-10-31T08:48:00;11.30;99.90
54461;DHT22;69977;49.414;11.010;2023-10-31T08:50:26;11.30;99.90
54461;DHT22;69977;49.414;11.010;2023-10-31T08:52:53;11.20;99.90
54461;DHT22;69977;49.414;11.010;2023-10-31T08:55:19;11.20;99.90
54461;DHT22;69977;49.414;11.010;2023-10-31T08:57:44;11.40;99.90
54461;DHT22;69977;49.414;11.010;2023-10-31T09:00:10;11.40;99.90
54461;DHT22;69977;49.414;11.010;2023-10-31T09:02:36;11.40;99.90
54461;DHT22;69977;49.414;11.010;2023-10-31T09:05:02;11.50;99.90
54461;DHT22;69977;49.414;11.010;2023-10-31T09:07:28;11.40;99.90
54461;DHT22;69977;49.414;11.010;2023-10-31T09:09:54;11.40;99.90
54461;DHT22;69977;49.414;11.010;2023-10-31T09:12:20;11.30;99.90
54461;DHT22;69977;49.414;11.010;2023-10-31T09:14:45;11.20;99.90
54461;DHT22;69977;49.414;11.010;2023-10-31T09:17:11;11.10;99.90
54461;DHT22;69977;49.414;11.010;2023-10-31T09:19:38;11.10;99.90
54461;DHT22;69977;49.414;11.010;2023-10-31T09:22:04;10.90;99.90
54461;DHT22;69977;49.414;11.010;2023-10-31T09:24:29;10.70;99.90
54461;DHT22;69977;49.414;11.010;2023-10-31T09:26:55;10.70;99.90
54461;DHT22;69977;49.414;11.010;2023-10-31T09:29:21;10.80;99.90
54461;DHT22;69977;49.414;11.010;2023-10-31T09:31:47;10.70;99.90
54461;DHT22;69977;49.414;11.010;2023-10-31T09:34:13;10.90;99.90
54461;DHT22;69977;49.414;11.010;2023-10-31T09:36:39;11.00;99.90
54461;DHT22;69977;49.414;11.010;2023-10-31T09:39:05;11.10;99.90
54461;DHT22;69977;49.414;11.010;2023-10-31T09:41:31;11.10;99.90
54461;DHT22;69977;49.414;11.010;2023-10-31T09:44:00;11.00;99.90
54461;DHT22;69977;49.414;11.010;2023-10-31T09:46:28;11.00;99.90
54461;DHT22;69977;49.414;11.010;2023-10-31T09:48:55;11.10;99.90
54461;DHT22;69977;49.414;11.010;2023-10-31T09:51:21;11.10;99.90
54461;DHT22;69977;49.414;11.010;2023-10-31T09:53:48;11.30;99.90
54461;DHT22;69977;49.414;11.010;2023-10-31T09:56:15;11.20;99.90
54461;DHT22;69977;49.414;11.010;2023-10-31T09:58:42;11.40;99.90
54461;DHT22;69977;49.414;11.010;2023-10-31T10:01:08;11.60;99.90
54461;DHT22;69977;49.414;11.010;2023-10-31T10:03:34;11.50;99.90
54461;DHT22;69977;49.414;11.010;2023-10-31T10:06:03;11.70;99.90
54461;DHT22;69977;49.414;11.010;2023-10-31T10:08:29;11.60;99.90
54461;DHT22;69977;49.414;11.010;2023-10-31T10:10:55;11.60;99.90
54461;DHT22;69977;49.414;11.010;2023-10-31T10:13:21;11.60;99.90
54461;DHT22;69977;49.414;11.010;2023-10-31T10:15:49;11.60;99.90
54461;DHT22;69977;49.414;11.010;2023-10-31T10:18:25;11.60;99.90
54461;DHT22;69977;49.414;11.010;2023-10-31T10:21:00;11.60;99.90
54461;DHT22;69977;49.414;11.010;2023-10-31T10:23:26;11.50;99.90
54461;DHT22;69977;49.414;11.010;2023-10-31T10:25:54;11.60;99.90
54461;DHT22;69977;49.414;11.010;2023-10-31T10:28:20;11.70;99.90
54461;DHT22;69977;49.414;11.010;2023-10-31T10:30:47;11.70;99.90
54461;DHT22;69977;49.414;11.010;2023-10-31T10:33:14;11.70;99.90
54461;DHT22;69977;49.414;11.010;2023-10-31T10:35:41;11.50;99.90
54461;DHT22;69977;49.414;11.010;2023-10-31T10:38:16;11.50;99.90
54461;DHT22;69977;49.414;11.010;2023-10-31T10:40:47;11.60;99.90
54461;DHT22;69977;49.414;11.010;2023-10-31T10:43:26;11.70;99.90
54461;DHT22;69977;49.414;11.010;2023-10-31T10:45:57;11.60;99.90
54461;DHT22;69977;49.414;11.010;2023-10-31T10:48:24;11.70;99.90
54461;DHT22;69977;49.414;11.010;2023-10-31T10:51:01;11.70;99.90
54461;DHT22;69977;49.414;11.010;2023-10-31T10:53:30;11.80;99.90
54461;DHT22;69977;49.414;11.010;2023-10-31T10:56:07;11.80;99.90
54461;DHT22;69977;49.414;11.010;2023-10-31T10:58:51;11.80;99.90
54461;DHT22;69977;49.414;11.010;2023-10-31T11:01:18;11.80;99.90
54461;DHT22;69977;49.414;11.010;2023-10-31T11:03:45;11.80;99.90
54461;DHT22;69977;49.414;11.010;2023-10-31T11:06:12;11.80;99.90
54461;DHT22;69977;49.414;11.010;2023-10-31T11:08:39;11.90;99.90
54461;DHT22;69977;49.414;11.010;2023-10-31T11:11:06;12.00;99.90
54461;DHT22;69977;49.414;11.010;2023-10-31T11:13:32;12.00;99.90
54461;DHT22;69977;49.414;11.010;2023-10-31T11:16:04;12.10;99.90
54461;DHT22;69977;49.414;11.010;2023-10-31T11:18:32;12.20;99.90
54461;DHT22;69977;49.414;11.010;2023-10-31T11:20:58;12.10;99.90
54461;DHT22;69977;49.414;11.010;2023-10-31T11:23:24;12.10;99.90
54461;DHT22;69977;49.414;11.010;2023-10-31T11:25:50;12.10;99.90
54461;DHT22;69977;49.414;11.010;2023-10-31T11:28:19;12.30;99.90
54461;DHT22;69977;49.414;11.010;2023-10-31T11:30:49;12.30;99.90
54461;DHT22;69977;49.414;11.010;2023-10-31T11:33:18;12.40;99.90
54461;DHT22;69977;49.414;11.010;2023-10-31T11:35:50;12.30;99.90
54461;DHT22;69977;49.414;11.010;2023-10-31T11:38:16;12.40;99.90
54461;DHT22;69977;49.414;11.010;2023-10-31T11:40:57;12.50;99.90
54461;DHT22;69977;49.414;11.010;2023-10-31T11:43:25;12.40;99.90
54461;DHT22;69977;49.414;11.010;2023-10-31T11:45:52;12.20;99.90
54461;DHT22;69977;49.414;11.010;2023-10-31T11:48:47;12.20;99.90
54461;DHT22;69977;49.414;11.010;2023-10-31T11:51:13;12.20;99.90
54461;DHT22;69977;49.414;11.010;2023-10-31T11:53:40;12.10;99.90
54461;DHT22;69977;49.414;11.010;2023-10-31T11:56:06;12.10;99.90
54461;DHT22;69977;49.414;11.010;2023-10-31T11:58:35;12.10;99.90
54461;DHT22;69977;49.414;11.010;2023-10-31T12:01:03;12.10;99.90
54461;DHT22;69977;49.414;11.010;2023-10-31T12:03:41;12.10;99.90
54461;DHT22;69977;49.414;11.010;2023-10-31T12:06:09;11.90;99.90
54461;DHT22;69977;49.414;11.010;2023-10-31T12:08:39;11.90;99.90
54461;DHT22;69977;49.414;11.010;2023-10-31T12:13:35;12.20;99.90
54461;DHT22;69977;49.414;11.010;2023-10-31T12:16:02;12.10;99.90
54461;DHT22;69977;49.414;11.010;2023-10-31T12:18:28;12.10;99.90
54461;DHT22;69977;49.414;11.010;2023-10-31T12:20:55;12.20;99.90
54461;DHT22;69977;49.414;11.010;2023-10-31T12:23:21;12.30;99.90
54461;DHT22;69977;49.414;11.010;2023-10-31T12:25:50;12.30;99.90
54461;DHT22;69977;49.414;11.010;2023-10-31T12:28:26;12.40;99.90
54461;DHT22;69977;49.414;11.010;2023-10-31T12:30:55;12.30;99.90
54461;DHT22;69977;49.414;11.010;2023-10-31T12:33:22;12.40;99.90
54461;DHT22;69977;49.414;11.010;2023-10-31T12:35:55;12.50;99.90
54461;DHT22;69977;49.414;11.010;2023-10-31T12:38:22;12.40;99.90
54461;DHT22;69977;49.414;11.010;2023-10-31T12:40:48;12.50;99.90
54461;DHT22;69977;49.414;11.010;2023-10-31T12:43:16;12.60;99.90
54461;DHT22;69977;49.414;11.010;2023-10-31T12:45:42;12.50;99.90
54461;DHT22;69977;49.414;11.010;2023-10-31T12:48:10;12.50;99.90
54461;DHT22;69977;49.414;11.010;2023-10-31T12:50:37;12.60;99.90
54461;DHT22;69977;49.414;11.010;2023-10-31T12:53:04;12.50;99.90
54461;DHT22;69977;49.414;11.010;2023-10-31T12:55:40;12.60;99.90
54461;DHT22;69977;49.414;11.010;2023-10-31T12:58:06;12.50;99.90
54461;DHT22;69977;49.414;11.010;2023-10-31T13:00:34;12.50;99.90
54461;DHT22;69977;49.414;11.010;2023-10-31T13:03:02;12.60;99.90
54461;DHT22;69977;49.414;11.010;2023-10-31T13:05:29;12.60;99.90
54461;DHT22;69977;49.414;11.010;2023-10-31T13:07:56;12.60;99.90
54461;DHT22;69977;49.414;11.010;2023-10-31T13:10:27;12.60;99.90
54461;DHT22;69977;49.414;11.010;2023-10-31T13:12:58;12.70;99.90
54461;DHT22;69977;49.414;11.010;2023-10-31T13:15:24;12.60;99.90
54461;DHT22;69977;49.414;11.010;2023-10-31T13:17:51;12.70;99.90
54461;DHT22;69977;49.414;11.010;2023-10-31T13:20:21;12.80;99.90
54461;DHT22;69977;49.414;11.010;2023-10-31T13:22:47;12.80;99.90
54461;DHT22;69977;49.414;11.010;2023-10-31T13:25:14;12.90;99.90
54461;DHT22;69977;49.414;11.010;2023-10-31T13:27:43;12.90;99.90
54461;DHT22;69977;49.414;11.010;2023-10-31T13:30:10;13.00;99.90
54461;DHT22;69977;49.414;11.010;2023-10-31T13:32:37;13.20;99.90
54461;DHT22;69977;49.414;11.010;2023-10-31T13:35:07;13.20;99.90
54461;DHT22;69977;49.414;11.010;2023-10-31T13:37:35;13.30;99.90
54461;DHT22;69977;49.414;11.010;2023-10-31T13:40:02;13.30;99.90
54461;DHT22;69977;49.414;11.010;2023-10-31T13:42:28;13.30;99.90
54461;DHT22;69977;49.414;11.010;2023-10-31T13:44:53;13.40;99.90
54461;DHT22;69977;49.414;11.010;2023-10-31T13:47:19;13.40;99.90
54461;DHT22;69977;49.414;11.010;2023-10-31T13:49:45;13.70;99.90
54461;DHT22;69977;49.414;11.010;2023-10-31T13:52:11;13.60;99.90
54461;DHT22;69977;49.414;11.010;2023-10-31T13:54:37;13.60;99.90
54461;DHT22;69977;49.414;11.010;2023-10-31T13:57:03;13.70;99.90
54461;DHT22;69977;49.414;11.010;2023-10-31T13:59:29;13.60;99.90
54461;DHT22;69977;49.414;11.010;2023-10-31T14:01:55;13.70;99.90
54461;DHT22;69977;49.414;11.010;2023-10-31T14:04:21;13.70;99.90
54461;DHT22;69977;49.414;11.010;2023-10-31T14:06:47;13.70;99.90
54461;DHT22;69977;49.414;11.010;2023-10-31T14:09:13;13.40;99.90
54461;DHT22;69977;49.414;11.010;2023-10-31T14:11:40;13.30;99.90
54461;DHT22;69977;49.414;11.010;2023-10-31T14:14:07;13.20;99.90
54461;DHT22;69977;49.414;11.010;2023-10-31T14:16:35;13.20;99.90
54461;DHT22;69977;49.414;11.010;2023-10-31T14:19:01;13.10;99.90
54461;DHT22;69977;49.414;11.010;2023-10-31T14:21:28;13.00;99.90
54461;DHT22;69977;49.414;11.010;2023-10-31T14:23:54;13.00;99.90
54461;DHT22;69977;49.414;11.010;2023-10-31T14:26:20;12.90;99.90
54461;DHT22;69977;49.414;11.010;2023-10-31T14:28:47;12.90;99.90
54461;DHT22;69977;49.414;11.010;2023-10-31T14:31:16;12.90;99.90
54461;DHT22;69977;49.414;11.010;2023-10-31T14:33:42;13.00;99.90
54461;DHT22;69977;49.414;11.010;2023-10-31T14:36:09;12.90;99.90
54461;DHT22;69977;49.414;11.010;2023-10-31T14:38:37;12.90;99.90
54461;DHT22;69977;49.414;11.010;2023-10-31T14:41:03;12.90;99.90
54461;DHT22;69977;49.414;11.010;2023-10-31T14:43:29;12.80;99.90
54461;DHT22;69977;49.414;11.010;2023-10-31T14:45:56;12.70;99.90
54461;DHT22;69977;49.414;11.010;2023-10-31T14:48:22;12.60;99.90
54461;DHT22;69977;49.414;11.010;2023-10-31T14:50:48;12.60;99.90
54461;DHT22;69977;49.414;11.010;2023-10-31T14:53:15;12.50;99.90
54461;DHT22;69977;49.414;11.010;2023-10-31T14:55:41;12.50;99.90
54461;DHT22;69977;49.414;11.010;2023-10-31T14:58:07;12.40;99.90
54461;DHT22;69977;49.414;11.010;2023-10-31T15:00:34;12.50;99.90
54461;DHT22;69977;49.414;11.010;2023-10-31T15:03:00;12.40;99.90
54461;DHT22;69977;49.414;11.010;2023-10-31T15:05:26;12.40;99.90
54461;DHT22;69977;49.414;11.010;2023-10-31T15:07:52;12.30;99.90
54461;DHT22;69977;49.414;11.010;2023-10-31T15:10:19;12.20;99.90
54461;DHT22;69977;49.414;11.010;2023-10-31T15:12:48;12.20;99.90
54461;DHT22;69977;49.414;11.010;2023-10-31T15:15:15;12.20;99.90